Time;durP1;ratioP1;P1;durP2;ratioP2;P2;SDS_P1;SDS_P2;PMS_P1;PMS_P2;Temp;Humidity;BMP_temperature;BMP_pressure;BME280_temperature;BME280_humidity;BME280_pressure;Samples;Min_cycle;Max_cycle;Signal;HPM_P1;HPM_P2
2021/01/15 00:02:20;;;;;;;17.10;14.67;;;;;;;;;;5017684;28;20260;-83
2021/01/15 00:04:51;;;;;;;18.90;15.17;;;;;;;;;;5034852;28;20193;-83
2021/01/15 00:07:21;;;;;;;24.57;17.90;;;;;;;;;;5017265;28;20190;-83
2021/01/15 00:09:49;;;;;;;21.40;16.77;;;;;;;;;;5034481;28;20216;-83
2021/01/15 00:12:18;;;;;;;17.23;14.77;;;;;;;;;;5016733;28;20228;-83
2021/01/15 00:14:51;;;;;;;19.50;16.47;;;;;;;;;;5016887;28;20179;-83
2021/01/15 00:17:19;;;;;;;20.70;16.13;;;;;;;;;;5034841;28;20172;-83
2021/01/15 00:19:51;;;;;;;17.47;15.57;;;;;;;;;;5017050;28;20230;-83
2021/01/15 00:22:20;;;;;;;19.17;15.77;;;;;;;;;;5034916;28;20186;-84
2021/01/15 00:24:49;;;;;;;19.73;16.10;;;;;;;;;;5016866;28;20615;-84
2021/01/15 00:27:20;;;;;;;24.33;17.40;;;;;;;;;;5016503;28;20188;-84
2021/01/15 00:29:50;;;;;;;17.87;16.00;;;;;;;;;;5034890;28;20292;-84
2021/01/15 00:32:16;;;;;;;23.43;16.67;;;;;;;;;;5017508;28;20179;-84
2021/01/15 00:34:47;;;;;;;22.73;16.20;;;;;;;;;;5016869;28;20178;-84
2021/01/15 00:37:20;;;;;;;19.37;17.27;;;;;;;;;;5034528;28;20663;-84
2021/01/15 00:39:46;;;;;;;24.07;17.73;;;;;;;;;;5035129;28;20243;-83
2021/01/15 00:42:12;;;;;;;19.27;16.87;;;;;;;;;;5018522;28;20183;-83
2021/01/15 00:44:45;;;;;;;23.00;17.33;;;;;;;;;;5034830;28;20181;-83
2021/01/15 00:47:18;;;;;;;22.70;17.00;;;;;;;;;;5016495;28;20187;-83
2021/01/15 00:49:50;;;;;;;21.50;16.63;;;;;;;;;;5016013;28;20204;-83
2021/01/15 00:52:16;;;;;;;20.87;17.60;;;;;;;;;;5033956;28;20175;-83
2021/01/15 00:54:48;;;;;;;23.07;16.70;;;;;;;;;;5033780;28;20196;-83
2021/01/15 00:57:18;;;;;;;21.33;17.17;;;;;;;;;;5016130;28;20554;-83
2021/01/15 00:59:49;;;;;;;22.77;16.83;;;;;;;;;;5034005;28;20203;-83
2021/01/15 01:02:17;;;;;;;27.77;17.60;;;;;;;;;;5016311;28;20187;-83
2021/01/15 01:04:51;;;;;;;19.83;17.23;;;;;;;;;;5034658;28;20180;-84
2021/01/15 01:07:21;;;;;;;22.37;17.03;;;;;;;;;;5034399;28;20191;-83
2021/01/15 01:10:01;;;;;;;18.60;15.77;;;;;;;;;;5033677;28;20244;-83
2021/01/15 01:12:41;;;;;;;18.80;16.70;;;;;;;;;;5016439;28;20178;-83
2021/01/15 01:15:15;;;;;;;24.53;18.13;;;;;;;;;;5016417;28;20169;-83
2021/01/15 01:17:46;;;;;;;23.13;17.63;;;;;;;;;;5016216;28;20183;-83
2021/01/15 01:20:18;;;;;;;19.83;16.90;;;;;;;;;;5034001;28;20178;-83
2021/01/15 01:22:50;;;;;;;23.63;17.60;;;;;;;;;;5016019;28;20604;-83
2021/01/15 01:25:20;;;;;;;25.83;17.67;;;;;;;;;;5033881;28;20658;-83
2021/01/15 01:27:47;;;;;;;21.63;17.80;;;;;;;;;;5015663;28;20181;-83
2021/01/15 01:30:21;;;;;;;21.07;17.13;;;;;;;;;;5033593;28;20208;-83
2021/01/15 01:32:52;;;;;;;22.17;17.63;;;;;;;;;;5015920;28;20210;-83
2021/01/15 01:35:21;;;;;;;21.47;18.00;;;;;;;;;;5033596;28;20339;-84
2021/01/15 01:37:48;;;;;;;22.77;17.57;;;;;;;;;;5015372;28;20613;-83
2021/01/15 01:40:20;;;;;;;21.80;18.70;;;;;;;;;;5015186;28;20176;-84
2021/01/15 01:42:49;;;;;;;29.67;19.10;;;;;;;;;;5033344;28;20181;-84
2021/01/15 01:45:19;;;;;;;19.20;16.27;;;;;;;;;;5033263;28;20176;-82
2021/01/15 01:47:50;;;;;;;23.80;17.40;;;;;;;;;;5033652;28;20184;-82
2021/01/15 01:50:21;;;;;;;23.03;18.17;;;;;;;;;;5033653;28;20204;-82
2021/01/15 01:52:49;;;;;;;19.87;16.77;;;;;;;;;;5033859;28;20541;-83
2021/01/15 01:55:21;;;;;;;22.17;17.77;;;;;;;;;;5016108;28;20178;-82
2021/01/15 01:57:51;;;;;;;21.47;16.57;;;;;;;;;;5033821;28;20172;-82
2021/01/15 02:00:26;;;;;;;20.27;17.30;;;;;;;;;;5033894;28;20186;-82
2021/01/15 02:02:53;;;;;;;25.77;16.80;;;;;;;;;;5033747;28;20179;-83
2021/01/15 02:05:21;;;;;;;19.83;16.57;;;;;;;;;;5033521;28;20183;-82
2021/01/15 02:07:51;;;;;;;21.33;16.97;;;;;;;;;;5033208;28;20553;-82
2021/01/15 02:10:21;;;;;;;21.63;15.87;;;;;;;;;;5033458;28;20676;-82
2021/01/15 02:12:55;;;;;;;18.20;14.97;;;;;;;;;;5015677;28;20179;-82
2021/01/15 02:15:37;;;;;;;17.80;15.57;;;;;;;;;;5033584;28;20179;-82
2021/01/15 02:18:37;;;;;;;17.10;14.17;;;;;;;;;;5033316;28;20544;-82
2021/01/15 02:21:24;;;;;;;16.73;14.93;;;;;;;;;;5006575;28;20601;-83
2021/01/15 02:23:53;;;;;;;20.60;14.73;;;;;;;;;;5036795;28;20233;-82
2021/01/15 02:26:40;;;;;;;17.43;14.10;;;;;;;;;;5036785;28;20180;-82
2021/01/15 02:29:41;;;;;;;18.23;15.13;;;;;;;;;;5036355;28;20667;-82
2021/01/15 02:32:13;;;;;;;18.03;15.00;;;;;;;;;;4978423;28;20212;-84
2021/01/15 02:34:53;;;;;;;18.77;14.40;;;;;;;;;;5018974;28;20177;-82
2021/01/15 02:37:43;;;;;;;16.17;14.57;;;;;;;;;;5018693;28;20613;-83
2021/01/15 02:40:21;;;;;;;14.73;13.07;;;;;;;;;;5036431;28;20185;-84
2021/01/15 02:42:51;;;;;;;14.30;12.60;;;;;;;;;;5036941;28;20181;-84
2021/01/15 02:45:21;;;;;;;18.63;13.40;;;;;;;;;;5018653;28;20250;-83
2021/01/15 02:47:51;;;;;;;17.77;14.30;;;;;;;;;;5037225;28;20190;-82
2021/01/15 02:50:21;;;;;;;19.10;13.43;;;;;;;;;;5018502;28;20204;-82
2021/01/15 02:52:48;;;;;;;17.27;13.00;;;;;;;;;;5036229;28;20551;-82
2021/01/15 02:55:19;;;;;;;16.87;13.30;;;;;;;;;;5036270;28;20223;-82
2021/01/15 02:57:45;;;;;;;16.10;13.50;;;;;;;;;;5018832;28;20177;-82
2021/01/15 03:00:16;;;;;;;16.80;12.80;;;;;;;;;;5018262;28;20648;-82
2021/01/15 03:02:50;;;;;;;15.63;13.13;;;;;;;;;;5018419;28;20649;-82
2021/01/15 03:05:21;;;;;;;16.47;13.00;;;;;;;;;;5018518;28;20255;-82
2021/01/15 03:07:51;;;;;;;16.43;13.17;;;;;;;;;;5035835;28;20203;-82
2021/01/15 03:10:25;;;;;;;14.47;12.57;;;;;;;;;;5018146;28;20679;-82
2021/01/15 03:12:56;;;;;;;17.53;14.23;;;;;;;;;;5036125;28;20523;-82
2021/01/15 03:15:26;;;;;;;15.90;13.23;;;;;;;;;;5036144;28;20227;-82
2021/01/15 03:17:56;;;;;;;16.57;12.67;;;;;;;;;;5035820;28;20167;-85
2021/01/15 03:20:26;;;;;;;13.93;12.13;;;;;;;;;;5036024;28;20257;-82
2021/01/15 03:22:57;;;;;;;16.03;12.00;;;;;;;;;;5035784;28;20165;-82
2021/01/15 03:25:30;;;;;;;17.37;12.63;;;;;;;;;;5035864;28;20181;-82
2021/01/15 03:28:01;;;;;;;13.63;12.23;;;;;;;;;;5035791;28;20172;-82
2021/01/15 03:30:35;;;;;;;15.83;11.77;;;;;;;;;;5017809;28;20217;-83
2021/01/15 03:33:05;;;;;;;16.33;11.33;;;;;;;;;;5036018;28;20172;-82
2021/01/15 03:35:36;;;;;;;18.17;12.43;;;;;;;;;;5035859;28;20164;-82
2021/01/15 03:38:14;;;;;;;14.90;12.20;;;;;;;;;;5017520;28;20740;-82
2021/01/15 03:40:51;;;;;;;17.10;11.33;;;;;;;;;;5035386;28;20657;-82
2021/01/15 03:43:22;;;;;;;12.10;10.80;;;;;;;;;;5035630;28;20260;-83
2021/01/15 03:45:56;;;;;;;12.77;10.43;;;;;;;;;;5017368;28;20221;-82
2021/01/15 03:48:27;;;;;;;12.63;10.40;;;;;;;;;;5035545;28;20205;-82
2021/01/15 03:51:01;;;;;;;12.97;10.83;;;;;;;;;;5017269;28;20236;-82
2021/01/15 03:53:31;;;;;;;11.77;10.57;;;;;;;;;;5035040;28;20175;-82
2021/01/15 03:56:02;;;;;;;13.60;10.43;;;;;;;;;;5017294;28;20198;-82
2021/01/15 03:58:35;;;;;;;11.33;9.57;;;;;;;;;;5035422;28;20197;-81
2021/01/15 04:01:05;;;;;;;11.70;10.60;;;;;;;;;;5035233;28;20236;-83
2021/01/15 04:03:35;;;;;;;15.47;10.00;;;;;;;;;;5035182;28;20181;-82
2021/01/15 04:06:07;;;;;;;11.23;10.13;;;;;;;;;;5034766;28;20181;-82
2021/01/15 04:08:38;;;;;;;11.77;10.13;;;;;;;;;;5126538;22;20307;-89
2021/01/15 04:11:09;;;;;;;13.57;9.50;;;;;;;;;;5016377;28;20205;-89
2021/01/15 04:13:41;;;;;;;10.10;9.10;;;;;;;;;;5034329;28;20173;-89
2021/01/15 04:16:09;;;;;;;15.40;9.97;;;;;;;;;;5016445;28;20178;-89
2021/01/15 04:18:35;;;;;;;13.47;10.10;;;;;;;;;;5016692;28;20189;-89
2021/01/15 04:21:05;;;;;;;10.57;9.03;;;;;;;;;;5016543;28;20180;-89
2021/01/15 04:23:34;;;;;;;13.00;10.00;;;;;;;;;;5016589;28;20226;-89
2021/01/15 04:26:03;;;;;;;12.37;9.00;;;;;;;;;;5033922;28;20648;-89
2021/01/15 04:28:38;;;;;;;12.47;9.07;;;;;;;;;;5033868;28;20664;-89
2021/01/15 04:31:07;;;;;;;12.17;9.33;;;;;;;;;;5034124;28;20283;-89
2021/01/15 04:33:39;;;;;;;12.47;9.43;;;;;;;;;;5033764;28;20218;-89
2021/01/15 04:36:15;;;;;;;10.73;9.60;;;;;;;;;;5016225;28;20174;-89
2021/01/15 04:38:46;;;;;;;12.93;8.70;;;;;;;;;;5016184;28;20276;-89
2021/01/15 04:41:22;;;;;;;12.57;9.47;;;;;;;;;;5016043;28;20179;-89
2021/01/15 04:43:57;;;;;;;11.73;9.40;;;;;;;;;;5016011;28;20187;-89
2021/01/15 04:46:30;;;;;;;11.30;9.93;;;;;;;;;;5015351;28;20712;-89
2021/01/15 04:49:03;;;;;;;12.47;9.93;;;;;;;;;;5016131;28;20227;-89
2021/01/15 04:51:37;;;;;;;13.30;10.57;;;;;;;;;;5015860;28;20181;-89
2021/01/15 04:54:18;;;;;;;13.33;9.90;;;;;;;;;;5016037;28;20181;-89
2021/01/15 04:56:52;;;;;;;12.43;9.90;;;;;;;;;;5015846;28;20179;-89
2021/01/15 04:59:25;;;;;;;13.03;9.37;;;;;;;;;;5016057;28;20203;-89
2021/01/15 05:01:58;;;;;;;12.30;9.43;;;;;;;;;;5015893;28;20660;-89
2021/01/15 05:04:28;;;;;;;12.23;9.33;;;;;;;;;;5015820;28;20200;-89
2021/01/15 05:07:00;;;;;;;13.10;10.00;;;;;;;;;;5033333;28;20169;-89
2021/01/15 05:09:38;;;;;;;11.67;10.13;;;;;;;;;;5015764;28;20217;-89
2021/01/15 05:12:11;;;;;;;13.13;9.77;;;;;;;;;;5033669;28;20557;-89
2021/01/15 05:14:47;;;;;;;13.37;10.03;;;;;;;;;;5016058;28;20229;-89
2021/01/15 05:17:16;;;;;;;13.50;9.80;;;;;;;;;;5015643;28;20178;-89
2021/01/15 05:19:47;;;;;;;16.37;11.20;;;;;;;;;;5015607;28;20197;-89
2021/01/15 05:22:17;;;;;;;14.63;10.43;;;;;;;;;;5015472;28;20181;-89
2021/01/15 05:24:49;;;;;;;12.80;10.07;;;;;;;;;;5015423;28;20214;-89
2021/01/15 05:30:17;;;;;;;12.83;10.47;;;;;;;;;;5033290;28;20717;-89
2021/01/15 05:32:46;;;;;;;14.23;10.47;;;;;;;;;;5033480;28;20287;-89
2021/01/15 05:35:15;;;;;;;13.53;10.03;;;;;;;;;;5033391;28;20247;-88
2021/01/15 05:37:46;;;;;;;13.67;10.27;;;;;;;;;;5015245;28;20227;-89
2021/01/15 05:40:20;;;;;;;12.67;10.23;;;;;;;;;;5015282;28;20192;-89
2021/01/15 05:42:50;;;;;;;13.43;10.73;;;;;;;;;;5016117;28;20650;-89
2021/01/15 05:45:22;;;;;;;14.33;10.70;;;;;;;;;;5015440;28;20178;-89
2021/01/15 05:47:51;;;;;;;15.47;10.33;;;;;;;;;;5033014;28;20174;-89
2021/01/15 05:50:22;;;;;;;17.90;11.50;;;;;;;;;;5015221;28;20754;-89
2021/01/15 05:53:01;;;;;;;12.73;10.13;;;;;;;;;;5015411;28;20185;-89
2021/01/15 05:55:31;;;;;;;13.23;9.43;;;;;;;;;;5015306;28;20203;-89
2021/01/15 05:58:18;;;;;;;12.50;10.23;;;;;;;;;;5018989;28;20175;-89
2021/01/15 06:00:52;;;;;;;12.53;9.87;;;;;;;;;;5036725;28;20209;-89
2021/01/15 06:03:22;;;;;;;14.40;10.50;;;;;;;;;;5018979;28;20176;-89
2021/01/15 06:05:55;;;;;;;13.20;10.77;;;;;;;;;;5019154;28;20174;-89
2021/01/15 06:08:25;;;;;;;13.10;9.93;;;;;;;;;;5036866;28;20194;-89
2021/01/15 06:10:55;;;;;;;15.07;11.50;;;;;;;;;;5018792;28;20288;-89
2021/01/15 06:13:41;;;;;;;14.27;11.07;;;;;;;;;;5019065;28;20660;-89
2021/01/15 06:16:20;;;;;;;14.93;11.00;;;;;;;;;;5018725;28;20224;-89
2021/01/15 06:19:03;;;;;;;13.17;10.47;;;;;;;;;;5036278;28;20192;-89
2021/01/15 06:21:36;;;;;;;15.10;10.73;;;;;;;;;;5018660;28;20229;-89
2021/01/15 06:24:07;;;;;;;12.87;10.87;;;;;;;;;;5018613;28;20174;-89
2021/01/15 06:26:43;;;;;;;14.00;10.90;;;;;;;;;;5018752;28;20169;-89
2021/01/15 06:29:15;;;;;;;12.57;10.33;;;;;;;;;;5018260;28;20217;-89
2021/01/15 06:31:48;;;;;;;16.03;11.70;;;;;;;;;;5018766;28;20177;-89
2021/01/15 06:34:22;;;;;;;14.37;11.60;;;;;;;;;;5018433;28;20173;-89
2021/01/15 06:36:59;;;;;;;17.57;12.80;;;;;;;;;;5018410;28;20197;-89
2021/01/15 06:39:31;;;;;;;16.80;12.17;;;;;;;;;;5036422;28;20192;-89
2021/01/15 06:42:09;;;;;;;14.43;11.90;;;;;;;;;;5036591;28;20165;-89
2021/01/15 06:44:39;;;;;;;13.40;11.30;;;;;;;;;;5018256;28;20186;-89
2021/01/15 06:47:11;;;;;;;17.90;12.77;;;;;;;;;;5018686;28;20177;-89
2021/01/15 06:49:45;;;;;;;19.53;13.20;;;;;;;;;;5018007;28;20215;-89
2021/01/15 06:52:25;;;;;;;19.13;14.10;;;;;;;;;;5018083;28;20198;-89
2021/01/15 06:54:59;;;;;;;17.77;13.73;;;;;;;;;;5018199;28;20171;-89
2021/01/15 06:57:36;;;;;;;19.50;14.63;;;;;;;;;;5018200;28;20636;-89
2021/01/15 07:00:02;;;;;;;19.63;14.70;;;;;;;;;;5017807;28;20612;-89
2021/01/15 07:02:47;;;;;;;21.90;14.70;;;;;;;;;;5018143;28;20212;-89
2021/01/15 07:05:17;;;;;;;21.23;14.70;;;;;;;;;;5035512;28;20176;-89
2021/01/15 07:07:47;;;;;;;16.47;13.87;;;;;;;;;;5017133;28;20176;-89
2021/01/15 07:10:21;;;;;;;21.33;14.73;;;;;;;;;;5017985;28;20581;-89
2021/01/15 07:12:56;;;;;;;21.33;15.13;;;;;;;;;;5017696;28;20179;-89
2021/01/15 07:15:30;;;;;;;20.40;14.50;;;;;;;;;;5035646;28;20164;-89
2021/01/15 07:18:00;;;;;;;18.93;13.73;;;;;;;;;;5017621;28;20223;-89
2021/01/15 07:20:36;;;;;;;22.53;14.87;;;;;;;;;;5017765;28;20601;-89
2021/01/15 07:23:11;;;;;;;19.20;14.03;;;;;;;;;;5017448;28;20616;-89
2021/01/15 07:25:51;;;;;;;22.83;14.73;;;;;;;;;;5017413;28;20263;-89
2021/01/15 07:28:21;;;;;;;18.57;13.37;;;;;;;;;;5017302;28;20179;-89
2021/01/15 07:30:52;;;;;;;18.00;13.87;;;;;;;;;;5017349;28;20251;-89
2021/01/15 07:33:22;;;;;;;17.33;13.10;;;;;;;;;;5017246;28;20183;-89
2021/01/15 07:35:52;;;;;;;23.00;13.17;;;;;;;;;;5017218;28;20172;-89
2021/01/15 07:38:22;;;;;;;19.63;14.10;;;;;;;;;;5034795;28;20587;-89
2021/01/15 07:40:53;;;;;;;20.60;14.43;;;;;;;;;;5017047;28;20180;-88
2021/01/15 07:43:31;;;;;;;16.73;13.13;;;;;;;;;;5016967;28;20180;-89
2021/01/15 07:46:06;;;;;;;17.47;12.57;;;;;;;;;;5034766;28;20176;-89
2021/01/15 07:48:36;;;;;;;21.17;14.13;;;;;;;;;;5017761;28;20203;-89
2021/01/15 07:51:12;;;;;;;17.70;12.90;;;;;;;;;;5034770;28;20231;-89
2021/01/15 07:53:47;;;;;;;18.80;12.57;;;;;;;;;;5017265;28;20173;-89
2021/01/15 07:56:26;;;;;;;19.83;13.97;;;;;;;;;;5017660;28;20173;-89
2021/01/15 07:58:54;;;;;;;17.20;12.63;;;;;;;;;;5016966;28;20203;-89
2021/01/15 08:01:23;;;;;;;17.37;12.80;;;;;;;;;;5034466;28;20172;-89
2021/01/15 08:03:59;;;;;;;17.33;12.53;;;;;;;;;;5017673;28;20230;-89
2021/01/15 08:06:27;;;;;;;19.17;13.47;;;;;;;;;;5034679;28;20263;-89
2021/01/15 08:09:06;;;;;;;15.83;12.40;;;;;;;;;;5017171;28;20220;-89
2021/01/15 08:11:41;;;;;;;16.67;12.03;;;;;;;;;;5016838;28;20271;-89
2021/01/15 08:14:21;;;;;;;17.00;12.77;;;;;;;;;;5016886;28;20610;-89
2021/01/15 08:16:51;;;;;;;15.53;11.23;;;;;;;;;;5034510;28;20168;-89
2021/01/15 08:19:25;;;;;;;18.77;12.33;;;;;;;;;;5015733;28;20201;-89
2021/01/15 08:21:56;;;;;;;16.63;11.43;;;;;;;;;;5016640;28;20700;-89
2021/01/15 08:24:27;;;;;;;15.90;12.10;;;;;;;;;;5016674;28;20614;-89
2021/01/15 08:27:01;;;;;;;19.67;12.90;;;;;;;;;;5016298;28;20169;-89
2021/01/15 08:29:31;;;;;;;16.50;12.17;;;;;;;;;;5016136;28;20219;-89
2021/01/15 08:32:05;;;;;;;17.90;12.53;;;;;;;;;;5033855;28;20180;-89
2021/01/15 08:34:39;;;;;;;18.67;12.30;;;;;;;;;;5016996;28;20535;-89
2021/01/15 08:37:21;;;;;;;20.43;12.97;;;;;;;;;;5016833;28;20676;-89
2021/01/15 08:39:51;;;;;;;20.80;13.83;;;;;;;;;;5016958;28;20206;-90
2021/01/15 08:42:21;;;;;;;20.03;12.67;;;;;;;;;;5016298;28;20215;-89
2021/01/15 08:44:48;;;;;;;21.73;13.47;;;;;;;;;;5016131;28;20178;-89
2021/01/15 08:47:22;;;;;;;19.30;13.40;;;;;;;;;;5016338;28;20192;-89
2021/01/15 08:49:56;;;;;;;14.63;11.27;;;;;;;;;;5015830;28;20291;-89
2021/01/15 08:52:26;;;;;;;21.20;13.73;;;;;;;;;;5016233;28;20599;-89
2021/01/15 08:54:56;;;;;;;17.17;12.33;;;;;;;;;;5015819;28;20643;-89
2021/01/15 08:57:36;;;;;;;16.73;11.80;;;;;;;;;;5016098;28;20230;-89
2021/01/15 09:00:10;;;;;;;17.07;11.77;;;;;;;;;;5016095;28;20289;-89
2021/01/15 09:02:43;;;;;;;17.47;10.50;;;;;;;;;;5015927;28;20269;-88
2021/01/15 09:05:14;;;;;;;17.43;11.60;;;;;;;;;;5015817;28;20219;-89
2021/01/15 09:07:51;;;;;;;12.77;11.03;;;;;;;;;;5015829;28;20239;-89
2021/01/15 09:10:22;;;;;;;18.33;11.30;;;;;;;;;;5015904;28;20212;-89
2021/01/15 09:12:52;;;;;;;17.83;12.13;;;;;;;;;;5015656;28;20206;-91
2021/01/15 09:15:26;;;;;;;15.63;11.90;;;;;;;;;;5015816;28;20180;-89
2021/01/15 09:17:53;;;;;;;15.67;11.03;;;;;;;;;;5015468;28;20553;-89
2021/01/15 09:20:19;;;;;;;14.77;11.20;;;;;;;;;;5015391;28;20254;-89
2021/01/15 09:22:46;;;;;;;17.43;11.63;;;;;;;;;;5015809;28;20237;-90
2021/01/15 09:25:16;;;;;;;14.23;10.70;;;;;;;;;;5015452;28;20180;-89
2021/01/15 09:27:43;;;;;;;15.73;10.97;;;;;;;;;;5015433;28;20177;-89
2021/01/15 09:30:10;;;;;;;17.07;11.40;;;;;;;;;;5033253;28;20208;-89
2021/01/15 09:32:42;;;;;;;15.90;9.83;;;;;;;;;;5018964;28;20188;-90
2021/01/15 09:35:17;;;;;;;17.07;11.23;;;;;;;;;;5020533;28;20172;-89
2021/01/15 09:37:43;;;;;;;16.57;11.27;;;;;;;;;;5019486;28;20168;-89
2021/01/15 09:40:13;;;;;;;16.27;10.73;;;;;;;;;;5019645;28;20211;-89
2021/01/15 09:42:39;;;;;;;16.53;11.10;;;;;;;;;;5019260;28;20184;-90
2021/01/15 09:45:11;;;;;;;16.87;11.00;;;;;;;;;;5019323;28;20263;-89
2021/01/15 09:47:44;;;;;;;15.03;11.23;;;;;;;;;;5020363;28;20177;-89
2021/01/15 09:50:11;;;;;;;19.03;12.17;;;;;;;;;;5019087;28;20209;-89
2021/01/15 09:52:39;;;;;;;19.13;11.70;;;;;;;;;;5036829;28;20184;-89
2021/01/15 09:55:05;;;;;;;16.70;11.57;;;;;;;;;;5019004;28;20198;-89
2021/01/15 09:57:31;;;;;;;16.03;11.00;;;;;;;;;;5019054;28;20609;-89
2021/01/15 09:59:59;;;;;;;15.80;11.20;;;;;;;;;;5036673;28;20201;-89
2021/01/15 10:02:31;;;;;;;16.03;9.80;;;;;;;;;;5018941;28;20189;-89
2021/01/15 10:05:02;;;;;;;15.97;11.30;;;;;;;;;;5018904;28;20185;-89
2021/01/15 10:07:35;;;;;;;14.93;10.70;;;;;;;;;;5018871;28;20188;-88
2021/01/15 10:10:03;;;;;;;20.80;10.70;;;;;;;;;;5137072;22;20698;-81
2021/01/15 10:12:38;;;;;;;15.47;10.77;;;;;;;;;;5035152;28;20181;-81
2021/01/15 10:15:09;;;;;;;14.27;10.70;;;;;;;;;;5036790;28;20172;-81
2021/01/15 10:17:49;;;;;;;15.07;9.83;;;;;;;;;;5037081;28;20520;-82
2021/01/15 10:20:25;;;;;;;14.67;9.87;;;;;;;;;;5036423;28;20223;-82
2021/01/15 10:22:58;;;;;;;12.60;10.20;;;;;;;;;;5036310;28;20645;-82
2021/01/15 10:25:25;;;;;;;13.23;10.57;;;;;;;;;;5036198;28;20183;-82
2021/01/15 10:27:56;;;;;;;14.27;10.33;;;;;;;;;;5036159;28;20188;-82
2021/01/15 10:30:26;;;;;;;14.43;10.03;;;;;;;;;;5034981;28;20213;-82
2021/01/15 10:32:52;;;;;;;14.23;10.57;;;;;;;;;;5037196;28;20175;-81
2021/01/15 10:35:22;;;;;;;13.13;10.03;;;;;;;;;;5034912;28;20176;-82
2021/01/15 10:37:52;;;;;;;15.70;11.50;;;;;;;;;;5036160;28;20235;-82
2021/01/15 10:40:22;;;;;;;12.97;9.80;;;;;;;;;;5035852;28;20666;-82
2021/01/15 10:42:52;;;;;;;15.27;10.60;;;;;;;;;;5034990;28;20170;-82
2021/01/15 10:45:19;;;;;;;15.13;10.83;;;;;;;;;;5035908;28;20235;-82
2021/01/15 10:47:51;;;;;;;14.70;10.23;;;;;;;;;;5036190;28;20202;-83
2021/01/15 10:50:22;;;;;;;16.80;10.17;;;;;;;;;;5035754;28;20255;-83
2021/01/15 10:52:54;;;;;;;14.13;10.03;;;;;;;;;;5035697;28;20170;-83
2021/01/15 10:55:26;;;;;;;16.97;9.83;;;;;;;;;;5035862;28;20168;-82
2021/01/15 10:57:53;;;;;;;12.77;10.17;;;;;;;;;;5034759;28;20641;-81
2021/01/15 11:00:24;;;;;;;13.33;10.20;;;;;;;;;;5034513;28;20247;-81
2021/01/15 11:02:55;;;;;;;14.37;10.87;;;;;;;;;;5036466;28;20207;-82
2021/01/15 11:05:23;;;;;;;15.97;10.33;;;;;;;;;;5036083;28;20176;-81
2021/01/15 11:07:53;;;;;;;14.07;10.60;;;;;;;;;;5035997;28;20567;-82
2021/01/15 11:10:22;;;;;;;13.67;10.00;;;;;;;;;;5035859;28;20212;-81
2021/01/15 11:12:51;;;;;;;15.20;9.70;;;;;;;;;;5035396;28;20173;-81
2021/01/15 11:15:21;;;;;;;15.47;9.97;;;;;;;;;;5035631;28;20197;-82
2021/01/15 11:17:52;;;;;;;12.80;8.80;;;;;;;;;;5035354;28;20223;-81
2021/01/15 11:20:21;;;;;;;13.10;10.20;;;;;;;;;;5033747;28;20194;-82
2021/01/15 11:22:51;;;;;;;14.73;10.70;;;;;;;;;;5035245;28;20181;-81
2021/01/15 11:25:20;;;;;;;13.43;9.83;;;;;;;;;;5033870;28;20184;-82
2021/01/15 11:27:49;;;;;;;12.40;10.13;;;;;;;;;;5035089;28;20261;-82
2021/01/15 11:30:19;;;;;;;13.70;10.00;;;;;;;;;;5035198;28;20197;-82
2021/01/15 11:32:49;;;;;;;13.03;10.27;;;;;;;;;;5034945;28;20169;-82
2021/01/15 11:35:21;;;;;;;13.43;10.10;;;;;;;;;;5034997;28;20173;-82
2021/01/15 11:37:57;;;;;;;13.47;10.43;;;;;;;;;;5033694;28;20231;-82
2021/01/15 11:40:30;;;;;;;13.53;9.90;;;;;;;;;;5034742;28;20227;-82
2021/01/15 11:43:01;;;;;;;13.77;10.20;;;;;;;;;;5034999;28;20173;-81
2021/01/15 11:45:31;;;;;;;13.47;10.27;;;;;;;;;;5034967;28;20204;-82
2021/01/15 11:48:02;;;;;;;14.93;9.93;;;;;;;;;;5035640;28;20662;-82
2021/01/15 11:50:34;;;;;;;14.17;9.83;;;;;;;;;;5034899;28;20208;-82
2021/01/15 11:53:05;;;;;;;13.47;10.50;;;;;;;;;;5034882;28;20177;-82
2021/01/15 11:55:40;;;;;;;17.03;9.77;;;;;;;;;;5034471;28;20167;-82
2021/01/15 11:58:15;;;;;;;14.03;9.77;;;;;;;;;;5033258;28;20167;-82
2021/01/15 12:00:43;;;;;;;11.10;8.50;;;;;;;;;;5034655;28;20279;-81
2021/01/15 12:03:15;;;;;;;13.00;10.27;;;;;;;;;;5033079;28;20172;-82
2021/01/15 12:05:49;;;;;;;13.43;9.40;;;;;;;;;;5033092;28;20260;-82
2021/01/15 12:08:21;;;;;;;12.67;9.03;;;;;;;;;;5033005;28;20182;-82
2021/01/15 12:10:54;;;;;;;12.80;9.10;;;;;;;;;;5034205;28;20696;-82
2021/01/15 12:13:26;;;;;;;12.93;9.07;;;;;;;;;;5034336;28;20165;-82
2021/01/15 12:16:05;;;;;;;13.73;9.50;;;;;;;;;;5032961;28;20173;-82
2021/01/15 12:18:38;;;;;;;12.73;9.00;;;;;;;;;;5035119;28;20532;-83
2021/01/15 12:21:10;;;;;;;12.23;9.30;;;;;;;;;;5032825;28;20679;-82
2021/01/15 12:23:41;;;;;;;11.10;8.53;;;;;;;;;;5034432;28;20185;-82
2021/01/15 12:26:11;;;;;;;18.33;9.63;;;;;;;;;;5034099;28;20185;-82
2021/01/15 12:28:44;;;;;;;14.67;8.60;;;;;;;;;;5033923;28;20631;-82
2021/01/15 12:31:19;;;;;;;11.07;8.43;;;;;;;;;;5033703;28;20686;-82
2021/01/15 12:33:54;;;;;;;11.80;8.63;;;;;;;;;;5034330;28;20152;-82
2021/01/15 12:36:29;;;;;;;9.17;7.90;;;;;;;;;;5033875;28;20157;-82
2021/01/15 12:39:01;;;;;;;14.17;9.13;;;;;;;;;;5033976;28;20191;-82
2021/01/15 12:41:34;;;;;;;11.57;9.00;;;;;;;;;;5032557;28;20239;-82
2021/01/15 12:44:05;;;;;;;13.10;8.23;;;;;;;;;;5032743;28;20174;-82
2021/01/15 12:46:44;;;;;;;10.57;7.80;;;;;;;;;;5033555;28;20224;-82
2021/01/15 12:49:15;;;;;;;12.13;8.00;;;;;;;;;;5033652;28;20242;-82
2021/01/15 12:51:42;;;;;;;10.00;7.57;;;;;;;;;;5033531;28;20206;-82
2021/01/15 12:54:14;;;;;;;11.03;8.13;;;;;;;;;;5033591;28;20172;-82
2021/01/15 12:56:47;;;;;;;9.80;7.40;;;;;;;;;;5033505;28;20313;-82
2021/01/15 12:59:18;;;;;;;11.10;7.53;;;;;;;;;;5032161;28;20198;-82
2021/01/15 13:01:45;;;;;;;13.97;7.67;;;;;;;;;;5033402;28;20178;-82
2021/01/15 13:04:15;;;;;;;10.57;7.63;;;;;;;;;;5033505;28;20231;-82
2021/01/15 13:06:46;;;;;;;9.90;7.87;;;;;;;;;;5032843;28;20228;-82
2021/01/15 13:09:18;;;;;;;8.43;6.83;;;;;;;;;;5033376;28;20221;-82
2021/01/15 13:11:50;;;;;;;8.17;6.77;;;;;;;;;;5033364;28;20186;-82
2021/01/15 13:14:22;;;;;;;11.43;7.53;;;;;;;;;;5032016;28;20285;-82
2021/01/15 13:16:52;;;;;;;8.70;6.33;;;;;;;;;;5033339;28;20203;-81
2021/01/15 13:19:25;;;;;;;9.27;7.20;;;;;;;;;;5032001;28;20201;-82
2021/01/15 13:21:55;;;;;;;8.27;6.67;;;;;;;;;;5032073;28;20201;-82
2021/01/15 13:24:25;;;;;;;9.87;6.53;;;;;;;;;;5033334;28;20187;-81
2021/01/15 13:26:56;;;;;;;7.53;6.70;;;;;;;;;;5033254;28;20207;-82
2021/01/15 13:29:27;;;;;;;12.03;7.53;;;;;;;;;;5031769;28;20687;-82
2021/01/15 13:32:05;;;;;;;10.43;7.03;;;;;;;;;;5033195;28;20174;-82
2021/01/15 13:34:37;;;;;;;10.70;7.00;;;;;;;;;;5031639;28;20177;-82
2021/01/15 13:37:10;;;;;;;9.07;6.10;;;;;;;;;;5033080;28;20177;-82
2021/01/15 13:39:41;;;;;;;8.77;7.07;;;;;;;;;;5033048;28;20193;-81
2021/01/15 13:42:15;;;;;;;8.77;6.53;;;;;;;;;;5033066;28;20173;-82
2021/01/15 13:44:45;;;;;;;9.67;7.17;;;;;;;;;;5031717;28;20180;-82
2021/01/15 13:47:15;;;;;;;7.70;6.17;;;;;;;;;;5033529;28;20174;-82
2021/01/15 13:49:44;;;;;;;10.63;6.67;;;;;;;;;;5032843;28;20209;-82
2021/01/15 13:52:19;;;;;;;8.97;6.97;;;;;;;;;;5031706;28;20263;-82
2021/01/15 13:54:51;;;;;;;8.07;6.27;;;;;;;;;;5032531;28;20181;-82
2021/01/15 13:57:22;;;;;;;11.00;6.70;;;;;;;;;;5032999;28;20272;-82
2021/01/15 13:59:52;;;;;;;7.57;5.90;;;;;;;;;;5032818;28;20258;-82
2021/01/15 14:02:22;;;;;;;9.10;7.10;;;;;;;;;;5032702;28;20233;-82
2021/01/15 14:04:51;;;;;;;7.10;6.03;;;;;;;;;;5032784;28;20251;-82
2021/01/15 14:07:19;;;;;;;9.80;6.37;;;;;;;;;;5031540;28;20653;-82
2021/01/15 14:09:51;;;;;;;8.73;6.30;;;;;;;;;;5032541;28;20223;-82
2021/01/15 14:12:17;;;;;;;6.60;5.80;;;;;;;;;;5032849;28;20641;-82
2021/01/15 14:14:50;;;;;;;7.10;6.30;;;;;;;;;;5031307;28;20663;-82
2021/01/15 14:17:21;;;;;;;9.33;6.10;;;;;;;;;;5031461;28;20200;-82
2021/01/15 14:19:59;;;;;;;9.97;5.70;;;;;;;;;;5035967;28;20569;-81
2021/01/15 14:22:34;;;;;;;9.23;6.83;;;;;;;;;;5035100;28;20184;-82
2021/01/15 14:25:08;;;;;;;10.03;6.60;;;;;;;;;;5036816;28;20173;-82
2021/01/15 14:27:41;;;;;;;7.60;5.67;;;;;;;;;;5036210;28;20275;-82
2021/01/15 14:30:13;;;;;;;12.73;6.57;;;;;;;;;;5036142;28;20295;-82
2021/01/15 14:32:55;;;;;;;9.87;5.90;;;;;;;;;;5034829;28;20559;-81
2021/01/15 14:35:25;;;;;;;9.63;5.40;;;;;;;;;;5036121;28;20227;-82
2021/01/15 14:37:56;;;;;;;8.03;5.27;;;;;;;;;;5036399;28;20717;-82
2021/01/15 14:40:27;;;;;;;9.23;6.43;;;;;;;;;;5034859;28;20207;-82
2021/01/15 14:42:58;;;;;;;10.27;6.00;;;;;;;;;;5036373;28;20191;-82
2021/01/15 14:45:28;;;;;;;7.53;6.10;;;;;;;;;;5036256;28;20183;-82
2021/01/15 14:48:05;;;;;;;7.77;5.47;;;;;;;;;;5036081;28;20186;-83
2021/01/15 14:50:38;;;;;;;8.47;6.33;;;;;;;;;;5034705;28;20210;-83
2021/01/15 14:53:09;;;;;;;10.80;5.90;;;;;;;;;;5034352;28;20173;-83